createdAt,value
2022-12-19T00:01:04.060Z,83.2
2022-12-19T00:05:07.876Z,83.2
2022-12-19T00:10:08.557Z,83.19
2022-12-19T00:15:08.336Z,83.17
2022-12-19T00:20:08.262Z,83.19
2022-12-19T00:25:08.498Z,83.18
2022-12-19T00:30:08.294Z,83.19
2022-12-19T00:35:08.081Z,83.19
2022-12-19T00:40:07.860Z,83.18
2022-12-19T00:45:08.637Z,83.18
2022-12-19T00:50:08.463Z,83.19
2022-12-19T00:55:14.158Z,83.19
2022-12-19T01:00:08.077Z,83.17
2022-12-19T01:05:08.496Z,83.17
2022-12-19T01:10:08.372Z,83.19
2022-12-19T01:15:08.175Z,83.18
2022-12-19T01:20:07.980Z,83.18
2022-12-19T01:25:07.785Z,83.17
2022-12-19T01:30:08.575Z,83.18
2022-12-19T01:35:16.649Z,83.17
2022-12-19T01:40:08.240Z,83.18
2022-12-19T01:45:08.063Z,83.17
2022-12-19T01:50:07.887Z,83.18
2022-12-19T01:55:08.666Z,83.16
2022-12-19T02:00:08.407Z,83.17
2022-12-19T02:05:08.214Z,83.19
2022-12-19T02:10:08.029Z,83.18
2022-12-19T02:15:07.864Z,83.18
2022-12-19T02:20:18.651Z,83.16
2022-12-19T02:25:08.419Z,83.18
2022-12-19T02:30:08.217Z,83.18
2022-12-19T02:35:08.004Z,83.2
2022-12-19T02:40:07.828Z,83.18
2022-12-19T02:45:08.616Z,83.17
2022-12-19T02:50:08.442Z,83.19
2022-12-19T02:55:08.249Z,83.17
2022-12-19T03:00:10.499Z,83.15
2022-12-19T03:05:08.349Z,83.16
2022-12-19T03:10:08.134Z,83.17
2022-12-19T03:15:07.947Z,83.18
2022-12-19T03:20:07.763Z,83.17
2022-12-19T03:25:08.576Z,83.18
2022-12-19T03:30:08.364Z,83.15
2022-12-19T03:35:08.172Z,83.17
2022-12-19T03:40:08.334Z,83.17
2022-12-19T03:45:08.233Z,83.19
2022-12-19T03:50:08.024Z,83.17
2022-12-19T03:55:07.823Z,83.16
2022-12-19T04:00:08.645Z,83.17
2022-12-19T04:05:08.446Z,83.17
2022-12-19T04:10:08.271Z,83.16
2022-12-19T04:15:08.061Z,83.17
2022-12-19T04:20:07.852Z,83.15
2022-12-19T04:25:08.691Z,83.18
2022-12-19T04:30:08.484Z,83.17
2022-12-19T04:35:08.270Z,83.16
2022-12-19T04:40:08.103Z,83.14
2022-12-19T04:45:07.935Z,83.16
2022-12-19T04:50:07.957Z,83.15
2022-12-19T04:55:07.875Z,83.17
2022-12-19T05:00:08.734Z,83.16
2022-12-19T05:05:02.984Z,83.16
2022-12-19T05:10:02.515Z,83.15
2022-12-19T05:15:04.496Z,83.13
2022-12-19T05:20:03.710Z,83.16
2022-12-19T05:25:02.975Z,83.17
2022-12-19T05:30:02.949Z,83.16
2022-12-19T05:35:02.201Z,83.15
2022-12-19T05:40:02.103Z,83.16
2022-12-19T05:45:02.320Z,83.16
2022-12-19T05:50:02.594Z,83.19
2022-12-19T05:55:02.664Z,83.22
2022-12-19T06:00:03.289Z,83.2
2022-12-19T06:05:02.499Z,83.16
2022-12-19T06:10:02.810Z,83.13
2022-12-19T06:15:04.369Z,83.16
2022-12-19T06:20:02.616Z,83.17
2022-12-19T06:25:02.953Z,83.16
2022-12-19T06:30:01.996Z,83.15
2022-12-19T06:35:04.612Z,83.14
2022-12-19T06:40:02.490Z,83.16
2022-12-19T06:45:03.177Z,83.18
2022-12-19T06:50:02.385Z,83.16
2022-12-19T06:55:03.238Z,83.16
2022-12-19T07:00:03.265Z,83.17
2022-12-19T07:05:04.364Z,83.16
2022-12-19T07:10:02.661Z,83.16
2022-12-19T07:15:03.227Z,83.15
2022-12-19T07:20:02.375Z,83.15
2022-12-19T07:25:02.929Z,83.14
2022-12-19T07:30:03.314Z,83.14
2022-12-19T07:35:03.166Z,83.13
2022-12-19T07:40:03.930Z,83.11
2022-12-19T07:45:02.901Z,83.11
2022-12-19T07:50:04.070Z,83.11
2022-12-19T07:55:02.204Z,83.1
2022-12-19T08:00:03.600Z,83.09
2022-12-19T08:05:02.900Z,83.06
2022-12-19T08:10:03.393Z,83.07
2022-12-19T08:15:02.924Z,83.05
2022-12-19T08:20:02.460Z,83.05
2022-12-19T08:25:03.892Z,83.05
2022-12-19T08:30:03.599Z,83.04
2022-12-19T08:35:02.692Z,83.03
2022-12-19T08:40:03.028Z,83.03
2022-12-19T08:45:02.918Z,83.01
2022-12-19T08:50:03.169Z,82.99
2022-12-19T08:55:02.185Z,82.99
2022-12-19T09:00:03.739Z,82.97
2022-12-19T09:06:05.461Z,82.99
2022-12-19T09:10:03.115Z,82.96
2022-12-19T09:15:02.717Z,82.97
2022-12-19T09:20:03.331Z,82.98
2022-12-19T09:25:02.588Z,82.96
2022-12-19T09:30:03.652Z,82.96
2022-12-19T09:35:04.613Z,82.94
2022-12-19T09:40:02.920Z,82.95
2022-12-19T09:45:03.229Z,82.95
2022-12-19T09:50:03.985Z,82.94
2022-12-19T09:55:02.424Z,82.96
2022-12-19T10:00:03.553Z,82.95
2022-12-19T10:05:12.471Z,82.96
2022-12-19T10:12:46.088Z,82.96
2022-12-19T10:15:02.744Z,82.95
2022-12-19T10:20:03.095Z,82.97
2022-12-19T10:25:09.117Z,82.96
2022-12-19T10:30:03.323Z,82.94
2022-12-19T10:35:02.744Z,82.95
2022-12-19T10:40:03.014Z,82.96
2022-12-19T10:45:02.206Z,82.97
2022-12-19T10:50:07.554Z,82.96
2022-12-19T10:55:02.717Z,82.94
2022-12-19T11:00:03.220Z,82.95
2022-12-19T11:05:02.889Z,82.94
2022-12-19T11:11:00.466Z,82.94
2022-12-19T11:20:28.181Z,82.93
2022-12-19T11:28:21.389Z,82.93
2022-12-19T11:30:47.279Z,82.93
2022-12-19T11:35:03.026Z,82.91
2022-12-19T11:40:02.605Z,82.89
2022-12-19T11:45:04.429Z,82.89
2022-12-19T11:50:02.761Z,82.89
2022-12-19T11:55:03.075Z,82.9
2022-12-19T12:00:05.587Z,82.88
2022-12-19T12:05:02.904Z,82.89
2022-12-19T12:14:07.974Z,82.85
2022-12-19T12:27:51.767Z,82.84
2022-12-19T12:31:11.036Z,82.86
2022-12-19T12:31:49.435Z,82.85
2022-12-19T12:32:06.048Z,82.87
2022-12-19T12:37:08.171Z,82.85
2022-12-19T12:40:03.717Z,82.83
2022-12-19T12:45:03.592Z,82.82
2022-12-19T12:50:02.671Z,82.84
2022-12-19T12:55:03.016Z,82.82
2022-12-19T13:00:02.026Z,82.83
2022-12-19T13:05:02.016Z,82.83
2022-12-19T13:10:03.935Z,82.84
2022-12-19T13:15:13.466Z,82.83
2022-12-19T13:20:03.449Z,82.82
2022-12-19T13:25:02.741Z,82.84
2022-12-19T13:30:03.115Z,82.85
2022-12-19T13:35:09.479Z,82.85
2022-12-19T13:40:11.107Z,82.86
2022-12-19T13:45:02.888Z,82.86
2022-12-19T13:50:02.887Z,82.87
2022-12-19T13:55:03.080Z,82.87
2022-12-19T14:00:02.371Z,82.84
2022-12-19T14:05:03.095Z,82.86
2022-12-19T14:11:26.791Z,82.86
2022-12-19T14:15:13.765Z,82.86
2022-12-19T14:20:33.169Z,82.88
2022-12-19T14:25:52.387Z,82.88
2022-12-19T14:30:27.367Z,82.91
2022-12-19T14:36:05.899Z,82.9
2022-12-19T14:40:02.711Z,82.91
2022-12-19T14:52:25.529Z,82.9
2022-12-19T14:54:16.486Z,82.9
2022-12-19T14:56:09.362Z,82.9
2022-12-19T15:00:02.204Z,82.91
2022-12-19T15:05:07.675Z,83.0
2022-12-19T15:11:07.602Z,82.97
2022-12-19T15:15:02.822Z,82.94
2022-12-19T15:20:04.575Z,82.93
2022-12-19T15:25:02.715Z,82.94
2022-12-19T15:30:03.675Z,82.95
2022-12-19T15:35:03.235Z,82.94
2022-12-19T15:40:02.622Z,82.94
2022-12-19T15:45:02.833Z,82.97
2022-12-19T15:50:05.109Z,82.97
2022-12-19T15:55:02.051Z,82.97
2022-12-19T16:00:02.796Z,82.98
2022-12-19T16:05:04.534Z,82.97
2022-12-19T16:10:04.135Z,82.99
2022-12-19T16:15:02.192Z,82.99
2022-12-19T16:20:02.562Z,83.0
2022-12-19T16:25:04.169Z,83.01
2022-12-19T16:30:02.293Z,83.02
2022-12-19T16:35:02.507Z,83.02
2022-12-19T16:40:03.069Z,83.01
2022-12-19T16:45:04.384Z,83.02
2022-12-19T16:50:03.972Z,83.03
2022-12-19T16:55:04.045Z,83.02
2022-12-19T17:00:02.619Z,83.03
2022-12-19T17:05:02.916Z,83.03
2022-12-19T17:10:04.210Z,83.02
2022-12-19T17:15:02.258Z,83.02
2022-12-19T17:20:03.028Z,83.04
2022-12-19T17:25:02.012Z,83.04
2022-12-19T17:30:02.908Z,83.04
2022-12-19T17:35:03.135Z,83.04
2022-12-19T17:40:02.524Z,83.03
2022-12-19T17:45:02.991Z,83.03
2022-12-19T17:50:02.884Z,83.04
2022-12-19T17:55:04.548Z,83.01
2022-12-19T18:00:02.581Z,83.0
2022-12-19T18:05:02.567Z,83.0
2022-12-19T18:10:02.737Z,83.02
2022-12-19T18:15:03.410Z,83.0
2022-12-19T18:20:02.647Z,83.0
2022-12-19T18:25:03.067Z,82.99
2022-12-19T18:30:02.402Z,82.99
2022-12-19T18:35:03.301Z,82.98
2022-12-19T18:40:03.496Z,82.98
2022-12-19T18:45:02.439Z,82.97
2022-12-19T18:50:04.107Z,82.97
2022-12-19T18:55:02.076Z,82.96
2022-12-19T19:00:02.524Z,82.97
2022-12-19T19:05:02.591Z,82.99
2022-12-19T19:10:02.728Z,82.97
2022-12-19T19:15:03.318Z,82.98
2022-12-19T19:20:02.440Z,82.99
2022-12-19T19:25:03.592Z,82.99
2022-12-19T19:30:02.592Z,82.99
2022-12-19T19:35:02.827Z,82.98
2022-12-19T19:40:02.893Z,82.99
2022-12-19T19:45:03.330Z,82.96
2022-12-19T19:50:02.738Z,82.95
2022-12-19T19:55:03.000Z,82.96
2022-12-19T20:00:02.041Z,82.97
2022-12-19T20:05:02.237Z,82.96
2022-12-19T20:10:04.216Z,82.95
2022-12-19T20:15:02.796Z,83.0
2022-12-19T20:20:03.355Z,82.96
2022-12-19T20:25:02.436Z,82.97
2022-12-19T20:30:02.874Z,82.96
2022-12-19T20:35:03.636Z,82.95
2022-12-19T20:40:03.632Z,82.95
2022-12-19T20:45:02.945Z,82.95
2022-12-19T20:50:01.952Z,82.93
2022-12-19T20:55:02.101Z,82.93
2022-12-19T21:00:02.189Z,82.95
2022-12-19T21:05:02.286Z,82.92
2022-12-19T21:10:02.451Z,82.92
2022-12-19T21:15:02.738Z,82.91
2022-12-19T21:20:02.733Z,82.93
2022-12-19T21:25:03.238Z,82.91
2022-12-19T21:30:02.919Z,82.91
2022-12-19T21:35:03.285Z,82.91
2022-12-19T21:40:02.255Z,82.92
2022-12-19T21:45:02.646Z,82.89
2022-12-19T21:50:03.513Z,82.92
2022-12-19T21:55:04.373Z,82.92
2022-12-19T22:00:02.848Z,82.9
2022-12-19T22:05:15.575Z,82.91
2022-12-19T22:10:08.354Z,82.9
2022-12-19T22:15:08.153Z,82.88
2022-12-19T22:20:07.981Z,82.88
2022-12-19T22:25:07.824Z,82.9
2022-12-19T22:30:10.832Z,82.88
2022-12-19T22:35:08.209Z,82.89
2022-12-19T22:40:08.007Z,82.86
2022-12-19T22:45:07.776Z,82.88
2022-12-19T22:50:08.613Z,82.85
2022-12-19T22:55:08.522Z,82.83
2022-12-19T23:00:08.337Z,82.86
2022-12-19T23:05:08.143Z,82.85
2022-12-19T23:10:08.007Z,82.83
2022-12-19T23:15:07.792Z,82.85
2022-12-19T23:20:08.627Z,82.81
2022-12-19T23:25:08.448Z,82.81
2022-12-19T23:30:08.290Z,82.81
2022-12-19T23:35:08.124Z,82.81
2022-12-19T23:40:08.058Z,82.81
2022-12-19T23:45:07.848Z,82.81
2022-12-19T23:50:08.687Z,82.8
2022-12-19T23:55:08.473Z,82.8
